SIA750 RJTT-RJOA
Flight info
| Callsign | SIA750 |
|---|---|
| Flight time | 1h 9m |
| Altitude | 28000 |
| Route | TIARA GUSRO Y20 KAMMY Y202 AMURO |
| Aircraft | A320/M-SDE3FGHIRWY/LB1 |
Departure
| Time | 2026-04-11 11:45 |
|---|---|
| Airport | Tokyo Haneda International Airport (RJTT) |
Arrival
| Time | 2026-04-11 12:54 |
|---|---|
| Airport | Hiroshima Airport (RJOA) |
| Time | Latitude | Longitude | Altitude | Speed | Heading |
|---|---|---|---|---|---|
| 2026-04-11 10:34 | 35.54990 | 139.79303 | 28 ft | 0 kts | 156° |
| 2026-04-11 11:23 | 35.55004 | 139.79296 | 24 ft | 2 kts | 156° |
| 2026-04-11 11:23 | 35.55020 | 139.79287 | 23 ft | 3 kts | 146° |
| 2026-04-11 11:23 | 35.55033 | 139.79271 | 24 ft | 3 kts | 108° |
| 2026-04-11 11:23 | 35.55035 | 139.79250 | 24 ft | 2 kts | 75° |
| 2026-04-11 11:24 | 35.55032 | 139.79235 | 25 ft | 1 kts | 75° |
| 2026-04-11 11:24 | 35.55032 | 139.79234 | 25 ft | 0 kts | 75° |
| 2026-04-11 11:31 | 35.55036 | 139.79243 | 25 ft | 2 kts | 59° |
| 2026-04-11 11:31 | 35.55051 | 139.79264 | 26 ft | 4 kts | 44° |
| 2026-04-11 11:31 | 35.55071 | 139.79294 | 24 ft | 5 kts | 65° |
| 2026-04-11 11:32 | 35.55065 | 139.79344 | 23 ft | 7 kts | 119° |
| 2026-04-11 11:32 | 35.55023 | 139.79386 | 24 ft | 9 kts | 148° |
| 2026-04-11 11:32 | 35.54964 | 139.79430 | 24 ft | 11 kts | 150° |
| 2026-04-11 11:32 | 35.54894 | 139.79477 | 24 ft | 12 kts | 151° |
| 2026-04-11 11:33 | 35.54813 | 139.79533 | 23 ft | 14 kts | 150° |
| 2026-04-11 11:33 | 35.54720 | 139.79599 | 24 ft | 17 kts | 150° |
| 2026-04-11 11:33 | 35.54614 | 139.79674 | 23 ft | 19 kts | 150° |
| 2026-04-11 11:33 | 35.54499 | 139.79758 | 23 ft | 18 kts | 149° |
| 2026-04-11 11:34 | 35.54393 | 139.79831 | 25 ft | 17 kts | 151° |
| 2026-04-11 11:34 | 35.54295 | 139.79898 | 25 ft | 14 kts | 151° |
| 2026-04-11 11:34 | 35.54231 | 139.79945 | 24 ft | 11 kts | 148° |
| 2026-04-11 11:34 | 35.54162 | 139.79996 | 25 ft | 11 kts | 148° |
| 2026-04-11 11:35 | 35.54094 | 139.80046 | 23 ft | 9 kts | 152° |
| 2026-04-11 11:35 | 35.54034 | 139.80085 | 23 ft | 11 kts | 149° |
| 2026-04-11 11:35 | 35.53964 | 139.80135 | 23 ft | 13 kts | 150° |
| 2026-04-11 11:35 | 35.53889 | 139.80186 | 23 ft | 10 kts | 155° |
| 2026-04-11 11:36 | 35.53820 | 139.80185 | 23 ft | 11 kts | 194° |
| 2026-04-11 11:36 | 35.53741 | 139.80181 | 25 ft | 9 kts | 169° |
| 2026-04-11 11:36 | 35.53669 | 139.80194 | 23 ft | 11 kts | 172° |
| 2026-04-11 11:36 | 35.53598 | 139.80229 | 23 ft | 12 kts | 147° |
| 2026-04-11 11:37 | 35.53524 | 139.80284 | 23 ft | 13 kts | 148° |
| 2026-04-11 11:37 | 35.53439 | 139.80345 | 23 ft | 15 kts | 153° |
| 2026-04-11 11:37 | 35.53342 | 139.80411 | 25 ft | 17 kts | 149° |
| 2026-04-11 11:37 | 35.53237 | 139.80486 | 23 ft | 19 kts | 150° |
| 2026-04-11 11:38 | 35.53132 | 139.80562 | 23 ft | 15 kts | 149° |
| 2026-04-11 11:38 | 35.53066 | 139.80604 | 24 ft | 9 kts | 162° |
| 2026-04-11 11:38 | 35.53009 | 139.80573 | 25 ft | 10 kts | 226° |
| 2026-04-11 11:38 | 35.52954 | 139.80510 | 25 ft | 12 kts | 221° |
| 2026-04-11 11:39 | 35.52887 | 139.80437 | 23 ft | 14 kts | 222° |
| 2026-04-11 11:39 | 35.52813 | 139.80355 | 25 ft | 15 kts | 222° |
| 2026-04-11 11:39 | 35.52731 | 139.80262 | 24 ft | 15 kts | 222° |
| 2026-04-11 11:39 | 35.52663 | 139.80186 | 23 ft | 11 kts | 222° |
| 2026-04-11 11:40 | 35.52613 | 139.80141 | 25 ft | 8 kts | 198° |
| 2026-04-11 11:40 | 35.52560 | 139.80161 | 24 ft | 9 kts | 143° |
| 2026-04-11 11:40 | 35.52512 | 139.80222 | 23 ft | 11 kts | 133° |
| 2026-04-11 11:40 | 35.52455 | 139.80297 | 25 ft | 13 kts | 133° |
| 2026-04-11 11:41 | 35.52439 | 139.80368 | 24 ft | 9 kts | 77° |
| 2026-04-11 11:41 | 35.52469 | 139.80423 | 24 ft | 7 kts | 43° |
| 2026-04-11 11:41 | 35.52470 | 139.80424 | 24 ft | 0 kts | 43° |
| 2026-04-11 11:44 | 35.52471 | 139.80425 | 24 ft | 1 kts | 43° |
| 2026-04-11 11:44 | 35.52592 | 139.80563 | 24 ft | 63 kts | 43° |
| 2026-04-11 11:44 | 35.53095 | 139.81123 | 26 ft | 129 kts | 42° |
| 2026-04-11 11:45 | 35.53851 | 139.82009 | 233 ft | 158 kts | 45° |
| 2026-04-11 11:45 | 35.54693 | 139.83049 | 568 ft | 185 kts | 45° |
| 2026-04-11 11:45 | 35.55583 | 139.84325 | 940 ft | 209 kts | 56° |
| 2026-04-11 11:45 | 35.56063 | 139.86103 | 1340 ft | 234 kts | 84° |
| 2026-04-11 11:46 | 35.55887 | 139.88189 | 1745 ft | 260 kts | 100° |
| 2026-04-11 11:46 | 35.55424 | 139.90407 | 2354 ft | 275 kts | 104° |
| 2026-04-11 11:46 | 35.54916 | 139.92407 | 3016 ft | 284 kts | 109° |
| 2026-04-11 11:46 | 35.53812 | 139.94405 | 3771 ft | 289 kts | 143° |
| 2026-04-11 11:47 | 35.52001 | 139.95379 | 4640 ft | 281 kts | 178° |
| 2026-04-11 11:47 | 35.50080 | 139.95312 | 5575 ft | 275 kts | 194° |
| 2026-04-11 11:47 | 35.48313 | 139.94584 | 6433 ft | 266 kts | 220° |
| 2026-04-11 11:47 | 35.47079 | 139.92948 | 7263 ft | 259 kts | 244° |
| 2026-04-11 11:48 | 35.46520 | 139.90881 | 8102 ft | 257 kts | 265° |
| 2026-04-11 11:48 | 35.46705 | 139.88723 | 8947 ft | 259 kts | 285° |
| 2026-04-11 11:48 | 35.47265 | 139.86611 | 9816 ft | 259 kts | 286° |
| 2026-04-11 11:48 | 35.47830 | 139.84488 | 10396 ft | 269 kts | 285° |
| 2026-04-11 11:49 | 35.48422 | 139.82240 | 10574 ft | 292 kts | 285° |
| 2026-04-11 11:49 | 35.49057 | 139.79818 | 10894 ft | 307 kts | 286° |
| 2026-04-11 11:49 | 35.49721 | 139.77302 | 11514 ft | 311 kts | 286° |
| 2026-04-11 11:49 | 35.50390 | 139.74772 | 12248 ft | 313 kts | 286° |
| 2026-04-11 11:50 | 35.51063 | 139.72223 | 12981 ft | 314 kts | 286° |
| 2026-04-11 11:50 | 35.51736 | 139.69666 | 13676 ft | 315 kts | 286° |
| 2026-04-11 11:50 | 35.52411 | 139.67096 | 14316 ft | 317 kts | 285° |
| 2026-04-11 11:50 | 35.53088 | 139.64517 | 14934 ft | 319 kts | 285° |
| 2026-04-11 11:51 | 35.53767 | 139.61925 | 15533 ft | 320 kts | 285° |
| 2026-04-11 11:51 | 35.54449 | 139.59317 | 16143 ft | 322 kts | 285° |
| 2026-04-11 11:51 | 35.55140 | 139.56674 | 16756 ft | 324 kts | 284° |
| 2026-04-11 11:51 | 35.55831 | 139.54024 | 17386 ft | 326 kts | 284° |
| 2026-04-11 11:52 | 35.56522 | 139.51369 | 18026 ft | 328 kts | 284° |
| 2026-04-11 11:52 | 35.57219 | 139.48676 | 18597 ft | 330 kts | 284° |
| 2026-04-11 11:52 | 35.57913 | 139.45987 | 19172 ft | 332 kts | 283° |
| 2026-04-11 11:52 | 35.58615 | 139.43267 | 19778 ft | 334 kts | 283° |
| 2026-04-11 11:53 | 35.59317 | 139.40546 | 20372 ft | 336 kts | 283° |
| 2026-04-11 11:53 | 35.60022 | 139.37815 | 20919 ft | 338 kts | 283° |
| 2026-04-11 11:53 | 35.60742 | 139.35030 | 21461 ft | 340 kts | 283° |
| 2026-04-11 11:53 | 35.61452 | 139.32289 | 21988 ft | 342 kts | 283° |
| 2026-04-11 11:54 | 35.62175 | 139.29500 | 22508 ft | 344 kts | 283° |
| 2026-04-11 11:54 | 35.62905 | 139.26686 | 22992 ft | 346 kts | 283° |
| 2026-04-11 11:54 | 35.63635 | 139.23857 | 23418 ft | 348 kts | 283° |
| 2026-04-11 11:54 | 35.64365 | 139.21014 | 23754 ft | 351 kts | 282° |
| 2026-04-11 11:55 | 35.65101 | 139.18144 | 24186 ft | 351 kts | 283° |
| 2026-04-11 11:55 | 35.65813 | 139.15276 | 24617 ft | 350 kts | 279° |
| 2026-04-11 11:55 | 35.66151 | 139.12330 | 25028 ft | 347 kts | 270° |
| 2026-04-11 11:55 | 35.66064 | 139.09399 | 25461 ft | 347 kts | 266° |
| 2026-04-11 11:56 | 35.65926 | 139.06392 | 25894 ft | 348 kts | 266° |
| 2026-04-11 11:56 | 35.65792 | 139.03419 | 26256 ft | 350 kts | 266° |
| 2026-04-11 11:56 | 35.65657 | 139.00427 | 26613 ft | 351 kts | 266° |
| 2026-04-11 11:56 | 35.65523 | 138.97425 | 27037 ft | 352 kts | 267° |
| 2026-04-11 11:57 | 35.65389 | 138.94421 | 27422 ft | 353 kts | 267° |
| 2026-04-11 11:57 | 35.65253 | 138.91387 | 27717 ft | 356 kts | 267° |
| 2026-04-11 11:57 | 35.65120 | 138.88390 | 27780 ft | 351 kts | 267° |
| 2026-04-11 11:57 | 35.64984 | 138.85408 | 27783 ft | 348 kts | 267° |
| 2026-04-11 11:58 | 35.64844 | 138.82427 | 27789 ft | 347 kts | 267° |
| 2026-04-11 11:58 | 35.64706 | 138.79476 | 27788 ft | 347 kts | 267° |
| 2026-04-11 11:58 | 35.64567 | 138.76510 | 27794 ft | 347 kts | 267° |
| 2026-04-11 11:58 | 35.64430 | 138.73545 | 27786 ft | 347 kts | 267° |
| 2026-04-11 11:59 | 35.64293 | 138.70587 | 27794 ft | 346 kts | 267° |
| 2026-04-11 11:59 | 35.64155 | 138.67636 | 27793 ft | 346 kts | 267° |
| 2026-04-11 11:59 | 35.64013 | 138.64674 | 27791 ft | 346 kts | 266° |
| 2026-04-11 11:59 | 35.63912 | 138.62717 | 27797 ft | 346 kts | 266° |
| 2026-04-11 12:00 | 35.63744 | 138.59769 | 27774 ft | 346 kts | 264° |
| 2026-04-11 12:00 | 35.63569 | 138.56825 | 27785 ft | 345 kts | 266° |
| 2026-04-11 12:00 | 35.63413 | 138.53888 | 27779 ft | 345 kts | 269° |
| 2026-04-11 12:00 | 35.63264 | 138.50943 | 27789 ft | 345 kts | 267° |
| 2026-04-11 12:01 | 35.63121 | 138.47988 | 27790 ft | 345 kts | 267° |
| 2026-04-11 12:01 | 35.62980 | 138.45047 | 27783 ft | 345 kts | 268° |
| 2026-04-11 12:01 | 35.62834 | 138.42100 | 27777 ft | 345 kts | 267° |
| 2026-04-11 12:01 | 35.62677 | 138.39161 | 27786 ft | 346 kts | 266° |
| 2026-04-11 12:02 | 35.62514 | 138.36205 | 27803 ft | 347 kts | 266° |
| 2026-04-11 12:02 | 35.62351 | 138.33249 | 27807 ft | 347 kts | 267° |
| 2026-04-11 12:02 | 35.62204 | 138.30604 | 27805 ft | 347 kts | 267° |
| 2026-04-11 12:02 | 35.62041 | 138.27643 | 27828 ft | 346 kts | 267° |
| 2026-04-11 12:03 | 35.61880 | 138.24695 | 27835 ft | 346 kts | 267° |
| 2026-04-11 12:03 | 35.61721 | 138.21781 | 27846 ft | 346 kts | 267° |
| 2026-04-11 12:03 | 35.61557 | 138.18832 | 27851 ft | 346 kts | 267° |
| 2026-04-11 12:03 | 35.61401 | 138.16009 | 27858 ft | 345 kts | 267° |
| 2026-04-11 12:04 | 35.61237 | 138.13073 | 27858 ft | 345 kts | 267° |
| 2026-04-11 12:04 | 35.61072 | 138.10114 | 27855 ft | 343 kts | 267° |
| 2026-04-11 12:04 | 35.60912 | 138.07229 | 27859 ft | 344 kts | 267° |
| 2026-04-11 12:04 | 35.60748 | 138.04276 | 27840 ft | 344 kts | 267° |
| 2026-04-11 12:05 | 35.60567 | 138.01092 | 27849 ft | 345 kts | 267° |
| 2026-04-11 12:05 | 35.60419 | 137.98558 | 27849 ft | 345 kts | 266° |
| 2026-04-11 12:05 | 35.60248 | 137.95618 | 27853 ft | 345 kts | 267° |
| 2026-04-11 12:05 | 35.60078 | 137.92665 | 27858 ft | 346 kts | 267° |
| 2026-04-11 12:06 | 35.59923 | 137.89938 | 27860 ft | 345 kts | 267° |
| 2026-04-11 12:06 | 35.59765 | 137.87187 | 27862 ft | 345 kts | 267° |
| 2026-04-11 12:06 | 35.59593 | 137.84270 | 27865 ft | 345 kts | 267° |
| 2026-04-11 12:06 | 35.59423 | 137.81384 | 27879 ft | 346 kts | 266° |
| 2026-04-11 12:07 | 35.59250 | 137.78539 | 27876 ft | 346 kts | 266° |
| 2026-04-11 12:07 | 35.59047 | 137.75526 | 27882 ft | 346 kts | 266° |
| 2026-04-11 12:07 | 35.58832 | 137.72591 | 27882 ft | 346 kts | 266° |
| 2026-04-11 12:07 | 35.58607 | 137.69638 | 27888 ft | 346 kts | 266° |
| 2026-04-11 12:08 | 35.58382 | 137.66710 | 27887 ft | 346 kts | 266° |
| 2026-04-11 12:08 | 35.58158 | 137.63790 | 27891 ft | 346 kts | 266° |
| 2026-04-11 12:08 | 35.57941 | 137.60932 | 27890 ft | 346 kts | 266° |
| 2026-04-11 12:08 | 35.57719 | 137.57977 | 27902 ft | 346 kts | 266° |
| 2026-04-11 12:09 | 35.57527 | 137.55431 | 27889 ft | 346 kts | 266° |
| 2026-04-11 12:09 | 35.57194 | 137.52351 | 27894 ft | 348 kts | 259° |
| 2026-04-11 12:09 | 35.56546 | 137.49471 | 27892 ft | 349 kts | 258° |
| 2026-04-11 12:09 | 35.55929 | 137.46630 | 27897 ft | 349 kts | 259° |
| 2026-04-11 12:10 | 35.55334 | 137.43702 | 27889 ft | 348 kts | 260° |
| 2026-04-11 12:10 | 35.54779 | 137.40809 | 27893 ft | 348 kts | 260° |
| 2026-04-11 12:10 | 35.54233 | 137.37911 | 27897 ft | 348 kts | 260° |
| 2026-04-11 12:10 | 35.53700 | 137.35064 | 27897 ft | 348 kts | 260° |
| 2026-04-11 12:11 | 35.53160 | 137.32211 | 27898 ft | 348 kts | 259° |
| 2026-04-11 12:11 | 35.52642 | 137.29502 | 27893 ft | 348 kts | 260° |
| 2026-04-11 12:11 | 35.52075 | 137.26555 | 27898 ft | 348 kts | 260° |
| 2026-04-11 12:11 | 35.51571 | 137.23931 | 27900 ft | 348 kts | 260° |
| 2026-04-11 12:12 | 35.51010 | 137.21046 | 27900 ft | 349 kts | 259° |
| 2026-04-11 12:12 | 35.50446 | 137.18149 | 27900 ft | 348 kts | 259° |
| 2026-04-11 12:12 | 35.49881 | 137.15246 | 27903 ft | 349 kts | 259° |
| 2026-04-11 12:12 | 35.49318 | 137.12361 | 27894 ft | 348 kts | 259° |
| 2026-04-11 12:13 | 35.48752 | 137.09461 | 27889 ft | 349 kts | 259° |
| 2026-04-11 12:13 | 35.48185 | 137.06564 | 27891 ft | 349 kts | 259° |
| 2026-04-11 12:13 | 35.47621 | 137.03672 | 27888 ft | 349 kts | 259° |
| 2026-04-11 12:13 | 35.47056 | 137.00772 | 27881 ft | 349 kts | 259° |
| 2026-04-11 12:14 | 35.46491 | 136.97872 | 27884 ft | 349 kts | 259° |
| 2026-04-11 12:14 | 35.45925 | 136.94977 | 27884 ft | 350 kts | 259° |
| 2026-04-11 12:14 | 35.45356 | 136.92083 | 27880 ft | 350 kts | 259° |
| 2026-04-11 12:14 | 35.44791 | 136.89205 | 27886 ft | 350 kts | 259° |
| 2026-04-11 12:15 | 35.44214 | 136.86272 | 27884 ft | 350 kts | 259° |
| 2026-04-11 12:15 | 35.43644 | 136.83404 | 27884 ft | 350 kts | 259° |
| 2026-04-11 12:15 | 35.43064 | 136.80501 | 27884 ft | 350 kts | 259° |
| 2026-04-11 12:15 | 35.42488 | 136.77610 | 27883 ft | 350 kts | 259° |
| 2026-04-11 12:16 | 35.41911 | 136.74696 | 27889 ft | 351 kts | 259° |
| 2026-04-11 12:16 | 35.41341 | 136.71814 | 27894 ft | 351 kts | 259° |
| 2026-04-11 12:16 | 35.40762 | 136.68888 | 27896 ft | 351 kts | 259° |
| 2026-04-11 12:16 | 35.40185 | 136.65979 | 27898 ft | 351 kts | 259° |
| 2026-04-11 12:17 | 35.39646 | 136.63262 | 27901 ft | 351 kts | 259° |
| 2026-04-11 12:17 | 35.39066 | 136.60341 | 27905 ft | 351 kts | 259° |
| 2026-04-11 12:17 | 35.38489 | 136.57435 | 27907 ft | 351 kts | 259° |
| 2026-04-11 12:17 | 35.37909 | 136.54530 | 27912 ft | 351 kts | 259° |
| 2026-04-11 12:18 | 35.37344 | 136.51706 | 27916 ft | 351 kts | 259° |
| 2026-04-11 12:18 | 35.36744 | 136.48716 | 27922 ft | 351 kts | 259° |
| 2026-04-11 12:18 | 35.35575 | 136.42905 | 27928 ft | 352 kts | 259° |
| 2026-04-11 12:19 | 35.34993 | 136.40028 | 27935 ft | 352 kts | 259° |
| 2026-04-11 12:19 | 35.34405 | 136.37126 | 27928 ft | 351 kts | 259° |
| 2026-04-11 12:19 | 35.33816 | 136.34216 | 27930 ft | 351 kts | 259° |
| 2026-04-11 12:19 | 35.33229 | 136.31314 | 27930 ft | 351 kts | 259° |
| 2026-04-11 12:20 | 35.32643 | 136.28415 | 27933 ft | 351 kts | 259° |
| 2026-04-11 12:20 | 35.32057 | 136.25519 | 27933 ft | 351 kts | 259° |
| 2026-04-11 12:20 | 35.31470 | 136.22621 | 27937 ft | 351 kts | 259° |
| 2026-04-11 12:20 | 35.30882 | 136.19722 | 27935 ft | 351 kts | 259° |
| 2026-04-11 12:21 | 35.30294 | 136.16822 | 27938 ft | 351 kts | 259° |
| 2026-04-11 12:21 | 35.29704 | 136.13920 | 27943 ft | 351 kts | 259° |
| 2026-04-11 12:21 | 35.29111 | 136.11019 | 27942 ft | 351 kts | 259° |
| 2026-04-11 12:21 | 35.28526 | 136.08153 | 27941 ft | 351 kts | 259° |
| 2026-04-11 12:22 | 35.27928 | 136.05223 | 27942 ft | 351 kts | 259° |
| 2026-04-11 12:22 | 35.27334 | 136.02321 | 27943 ft | 351 kts | 259° |
| 2026-04-11 12:22 | 35.26745 | 135.99459 | 27943 ft | 351 kts | 259° |
| 2026-04-11 12:22 | 35.26151 | 135.96576 | 27942 ft | 351 kts | 259° |
| 2026-04-11 12:23 | 35.25550 | 135.93668 | 27937 ft | 352 kts | 259° |
| 2026-04-11 12:23 | 35.24944 | 135.90728 | 27934 ft | 352 kts | 259° |
| 2026-04-11 12:23 | 35.24354 | 135.87861 | 27946 ft | 353 kts | 259° |
| 2026-04-11 12:23 | 35.23755 | 135.84959 | 27921 ft | 351 kts | 258° |
| 2026-04-11 12:24 | 35.23155 | 135.82068 | 27932 ft | 352 kts | 259° |
| 2026-04-11 12:24 | 35.22552 | 135.79157 | 27939 ft | 352 kts | 259° |
| 2026-04-11 12:24 | 35.21951 | 135.76238 | 27941 ft | 352 kts | 259° |
| 2026-04-11 12:24 | 35.21355 | 135.73331 | 27946 ft | 352 kts | 259° |
| 2026-04-11 12:25 | 35.20757 | 135.70425 | 27947 ft | 351 kts | 258° |
| 2026-04-11 12:25 | 35.20159 | 135.67536 | 27944 ft | 351 kts | 258° |
| 2026-04-11 12:25 | 35.19554 | 135.64649 | 27949 ft | 351 kts | 258° |
| 2026-04-11 12:25 | 35.18942 | 135.61742 | 27952 ft | 351 kts | 258° |
| 2026-04-11 12:26 | 35.18345 | 135.58895 | 27949 ft | 351 kts | 258° |
| 2026-04-11 12:26 | 35.17731 | 135.55955 | 27949 ft | 351 kts | 258° |
| 2026-04-11 12:26 | 35.17131 | 135.53107 | 27950 ft | 351 kts | 258° |
| 2026-04-11 12:26 | 35.16518 | 135.50196 | 27950 ft | 351 kts | 258° |
| 2026-04-11 12:27 | 35.15914 | 135.47318 | 27954 ft | 351 kts | 258° |
| 2026-04-11 12:27 | 35.15305 | 135.44431 | 27944 ft | 351 kts | 258° |
| 2026-04-11 12:27 | 35.14697 | 135.41547 | 27944 ft | 351 kts | 258° |
| 2026-04-11 12:27 | 35.14091 | 135.38665 | 27948 ft | 351 kts | 258° |
| 2026-04-11 12:28 | 35.13483 | 135.35765 | 27936 ft | 351 kts | 258° |
| 2026-04-11 12:28 | 35.12876 | 135.32882 | 27940 ft | 351 kts | 258° |
| 2026-04-11 12:28 | 35.12265 | 135.29988 | 27937 ft | 352 kts | 258° |
| 2026-04-11 12:28 | 35.11654 | 135.27095 | 27941 ft | 352 kts | 258° |
| 2026-04-11 12:29 | 35.11044 | 135.24201 | 27942 ft | 352 kts | 258° |
| 2026-04-11 12:29 | 35.10429 | 135.21299 | 27950 ft | 352 kts | 258° |
| 2026-04-11 12:29 | 35.09814 | 135.18412 | 27939 ft | 352 kts | 258° |
| 2026-04-11 12:29 | 35.09198 | 135.15522 | 27942 ft | 352 kts | 258° |
| 2026-04-11 12:30 | 35.08588 | 135.12666 | 27938 ft | 352 kts | 258° |
| 2026-04-11 12:30 | 35.07962 | 135.09742 | 27936 ft | 352 kts | 258° |
| 2026-04-11 12:30 | 35.07342 | 135.06846 | 27933 ft | 352 kts | 258° |
| 2026-04-11 12:30 | 35.06723 | 135.03957 | 27931 ft | 352 kts | 258° |
| 2026-04-11 12:31 | 35.06104 | 135.01060 | 27935 ft | 353 kts | 258° |
| 2026-04-11 12:31 | 35.05485 | 134.98167 | 27929 ft | 352 kts | 258° |
| 2026-04-11 12:31 | 35.04862 | 134.95271 | 27927 ft | 353 kts | 258° |
| 2026-04-11 12:31 | 35.04237 | 134.92372 | 27923 ft | 353 kts | 258° |
| 2026-04-11 12:32 | 35.03614 | 134.89477 | 27921 ft | 353 kts | 258° |
| 2026-04-11 12:32 | 35.02991 | 134.86581 | 27843 ft | 355 kts | 258° |
| 2026-04-11 12:32 | 35.02364 | 134.83664 | 27676 ft | 355 kts | 258° |
| 2026-04-11 12:32 | 35.01737 | 134.80767 | 27408 ft | 351 kts | 258° |
| 2026-04-11 12:33 | 35.01115 | 134.77903 | 27145 ft | 349 kts | 258° |
| 2026-04-11 12:33 | 35.00503 | 134.75081 | 26914 ft | 348 kts | 258° |
| 2026-04-11 12:33 | 34.99877 | 134.72200 | 26663 ft | 347 kts | 258° |
| 2026-04-11 12:33 | 34.99259 | 134.69351 | 26418 ft | 347 kts | 258° |
| 2026-04-11 12:34 | 34.98641 | 134.66514 | 26175 ft | 347 kts | 258° |
| 2026-04-11 12:34 | 34.98028 | 134.63704 | 25939 ft | 347 kts | 258° |
| 2026-04-11 12:34 | 34.97407 | 134.60866 | 25700 ft | 346 kts | 258° |
| 2026-04-11 12:34 | 34.96791 | 134.58048 | 25460 ft | 345 kts | 258° |
| 2026-04-11 12:35 | 34.96171 | 134.55209 | 25229 ft | 345 kts | 258° |
| 2026-04-11 12:35 | 34.95553 | 134.52387 | 24999 ft | 345 kts | 258° |
| 2026-04-11 12:35 | 34.94938 | 134.49576 | 24763 ft | 344 kts | 258° |
| 2026-04-11 12:35 | 34.94322 | 134.46756 | 24532 ft | 344 kts | 258° |
| 2026-04-11 12:36 | 34.93702 | 134.43934 | 24303 ft | 343 kts | 258° |
| 2026-04-11 12:36 | 34.93084 | 134.41122 | 24067 ft | 343 kts | 258° |
| 2026-04-11 12:36 | 34.92468 | 134.38320 | 23844 ft | 343 kts | 257° |
| 2026-04-11 12:36 | 34.91854 | 134.35521 | 23634 ft | 342 kts | 258° |
| 2026-04-11 12:37 | 34.91243 | 134.32722 | 23368 ft | 342 kts | 258° |
| 2026-04-11 12:37 | 34.90632 | 134.29923 | 23092 ft | 341 kts | 258° |
| 2026-04-11 12:37 | 34.90022 | 134.27133 | 22827 ft | 341 kts | 258° |
| 2026-04-11 12:37 | 34.89410 | 134.24348 | 22560 ft | 340 kts | 258° |
| 2026-04-11 12:38 | 34.88799 | 134.21573 | 22294 ft | 339 kts | 258° |
| 2026-04-11 12:38 | 34.88188 | 134.18796 | 22029 ft | 339 kts | 258° |
| 2026-04-11 12:38 | 34.87582 | 134.16033 | 21774 ft | 338 kts | 258° |
| 2026-04-11 12:38 | 34.86976 | 134.13271 | 21511 ft | 337 kts | 258° |
| 2026-04-11 12:39 | 34.86126 | 134.10597 | 21259 ft | 342 kts | 248° |
| 2026-04-11 12:39 | 34.85030 | 134.08062 | 20954 ft | 334 kts | 247° |
| 2026-04-11 12:39 | 34.83951 | 134.05587 | 20569 ft | 329 kts | 247° |
| 2026-04-11 12:39 | 34.82883 | 134.03147 | 20161 ft | 324 kts | 248° |
| 2026-04-11 12:40 | 34.81829 | 134.00733 | 19752 ft | 320 kts | 248° |
| 2026-04-11 12:40 | 34.80794 | 133.98358 | 19342 ft | 317 kts | 248° |
| 2026-04-11 12:40 | 34.79764 | 133.95994 | 18923 ft | 315 kts | 248° |
| 2026-04-11 12:40 | 34.78799 | 133.93783 | 18542 ft | 312 kts | 248° |
| 2026-04-11 12:41 | 34.77798 | 133.91480 | 18106 ft | 311 kts | 248° |
| 2026-04-11 12:41 | 34.76779 | 133.89131 | 17649 ft | 310 kts | 248° |
| 2026-04-11 12:41 | 34.75787 | 133.86849 | 17236 ft | 308 kts | 248° |
| 2026-04-11 12:41 | 34.74791 | 133.84568 | 16801 ft | 306 kts | 248° |
| 2026-04-11 12:42 | 34.73786 | 133.82273 | 16377 ft | 305 kts | 248° |
| 2026-04-11 12:42 | 34.72793 | 133.80003 | 15945 ft | 304 kts | 248° |
| 2026-04-11 12:42 | 34.71801 | 133.77736 | 15524 ft | 303 kts | 248° |
| 2026-04-11 12:43 | 34.69829 | 133.73229 | 14669 ft | 301 kts | 248° |
| 2026-04-11 12:43 | 34.68844 | 133.70977 | 14244 ft | 301 kts | 248° |
| 2026-04-11 12:43 | 34.67860 | 133.68731 | 13800 ft | 301 kts | 248° |
| 2026-04-11 12:43 | 34.66871 | 133.66483 | 13348 ft | 301 kts | 248° |
| 2026-04-11 12:44 | 34.65887 | 133.64251 | 12914 ft | 300 kts | 247° |
| 2026-04-11 12:44 | 34.64907 | 133.62030 | 12522 ft | 298 kts | 247° |
| 2026-04-11 12:44 | 34.64258 | 133.60556 | 12233 ft | 298 kts | 247° |
| 2026-04-11 12:44 | 34.63284 | 133.58342 | 11805 ft | 297 kts | 247° |
| 2026-04-11 12:45 | 34.62309 | 133.56130 | 11379 ft | 297 kts | 247° |
| 2026-04-11 12:45 | 34.61336 | 133.53931 | 10949 ft | 296 kts | 246° |
| 2026-04-11 12:45 | 34.60361 | 133.51726 | 10537 ft | 295 kts | 246° |
| 2026-04-11 12:45 | 34.59414 | 133.49589 | 10337 ft | 281 kts | 246° |
| 2026-04-11 12:46 | 34.58204 | 133.46860 | 9927 ft | 273 kts | 246° |
| 2026-04-11 12:46 | 34.57600 | 133.45491 | 9846 ft | 273 kts | 246° |
| 2026-04-11 12:46 | 34.56705 | 133.43458 | 9718 ft | 273 kts | 246° |
| 2026-04-11 12:46 | 34.55816 | 133.41441 | 9581 ft | 273 kts | 246° |
| 2026-04-11 12:47 | 34.54917 | 133.39403 | 9370 ft | 275 kts | 246° |
| 2026-04-11 12:47 | 34.54010 | 133.37341 | 8945 ft | 276 kts | 246° |
| 2026-04-11 12:47 | 34.53114 | 133.35313 | 8444 ft | 280 kts | 246° |
| 2026-04-11 12:47 | 34.52198 | 133.33247 | 8205 ft | 275 kts | 246° |
| 2026-04-11 12:48 | 34.51292 | 133.31213 | 7792 ft | 271 kts | 246° |
| 2026-04-11 12:48 | 34.50399 | 133.29211 | 7179 ft | 270 kts | 246° |
| 2026-04-11 12:48 | 34.49502 | 133.27198 | 6702 ft | 270 kts | 246° |
| 2026-04-11 12:48 | 34.48613 | 133.25203 | 6159 ft | 268 kts | 246° |
| 2026-04-11 12:49 | 34.47731 | 133.23224 | 5583 ft | 267 kts | 248° |
| 2026-04-11 12:49 | 34.46853 | 133.21254 | 4974 ft | 264 kts | 247° |
| 2026-04-11 12:49 | 34.45986 | 133.19308 | 4356 ft | 262 kts | 246° |
| 2026-04-11 12:49 | 34.45139 | 133.17410 | 4125 ft | 247 kts | 245° |
| 2026-04-11 12:50 | 34.44330 | 133.15599 | 3676 ft | 243 kts | 245° |
| 2026-04-11 12:50 | 34.43721 | 133.13776 | 3466 ft | 226 kts | 260° |
| 2026-04-11 12:50 | 34.43585 | 133.11937 | 3341 ft | 213 kts | 272° |
| 2026-04-11 12:50 | 34.43590 | 133.10191 | 3236 ft | 202 kts | 272° |
| 2026-04-11 12:51 | 34.43592 | 133.08550 | 3178 ft | 185 kts | 272° |
| 2026-04-11 12:51 | 34.43592 | 133.07065 | 3081 ft | 168 kts | 272° |
| 2026-04-11 12:51 | 34.43593 | 133.05720 | 2984 ft | 151 kts | 272° |
| 2026-04-11 12:51 | 34.43594 | 133.04474 | 2934 ft | 145 kts | 272° |
| 2026-04-11 12:52 | 34.43596 | 133.03255 | 2777 ft | 145 kts | 271° |
| 2026-04-11 12:52 | 34.43596 | 133.02040 | 2566 ft | 143 kts | 272° |
| 2026-04-11 12:52 | 34.43596 | 133.00841 | 2348 ft | 143 kts | 271° |
| 2026-04-11 12:52 | 34.43606 | 132.99657 | 2103 ft | 142 kts | 271° |
| 2026-04-11 12:53 | 34.43614 | 132.98452 | 1935 ft | 143 kts | 268° |
| 2026-04-11 12:53 | 34.43634 | 132.97242 | 1719 ft | 144 kts | 265° |
| 2026-04-11 12:53 | 34.43599 | 132.96023 | 1478 ft | 143 kts | 267° |
| 2026-04-11 12:53 | 34.43596 | 132.94814 | 1317 ft | 144 kts | 272° |
| 2026-04-11 12:54 | 34.43600 | 132.93603 | 1206 ft | 145 kts | 270° |
| 2026-04-11 12:54 | 34.43603 | 132.92396 | 1081 ft | 135 kts | 270° |
| 2026-04-11 12:54 | 34.43613 | 132.91460 | 1080 ft | 86 kts | 270° |
| 2026-04-11 12:54 | 34.43614 | 132.90948 | 1081 ft | 26 kts | 270° |
| 2026-04-11 12:55 | 34.43698 | 132.90866 | 1081 ft | 12 kts | 2° |
| 2026-04-11 12:55 | 34.43763 | 132.90922 | 1080 ft | 13 kts | 72° |
| 2026-04-11 12:55 | 34.43768 | 132.91043 | 1080 ft | 15 kts | 88° |
| 2026-04-11 12:55 | 34.43768 | 132.91155 | 1080 ft | 14 kts | 90° |
| 2026-04-11 12:56 | 34.43768 | 132.91281 | 1080 ft | 16 kts | 90° |
| 2026-04-11 12:56 | 34.43767 | 132.91428 | 1079 ft | 19 kts | 90° |
| 2026-04-11 12:56 | 34.43767 | 132.91547 | 1079 ft | 12 kts | 90° |
| 2026-04-11 12:56 | 34.43767 | 132.91640 | 1079 ft | 7 kts | 90° |
| 2026-04-11 12:57 | 34.43774 | 132.91688 | 1079 ft | 4 kts | 54° |
| 2026-04-11 12:57 | 34.43798 | 132.91694 | 1079 ft | 3 kts | 347° |
| 2026-04-11 12:57 | 34.43823 | 132.91688 | 1079 ft | 5 kts | 352° |
| 2026-04-11 12:57 | 34.43861 | 132.91686 | 1079 ft | 6 kts | 1° |
| 2026-04-11 12:58 | 34.43896 | 132.91687 | 1079 ft | 5 kts | 1° |
| 2026-04-11 12:58 | 34.43921 | 132.91688 | 1079 ft | 0 kts | 0° |